createdAt,value
2018-04-08T00:00:19.194Z,13.3
2018-04-08T00:01:39.077Z,13.3
2018-04-08T00:03:06.498Z,13.2
2018-04-08T00:04:33.956Z,13.2
2018-04-08T00:05:56.327Z,13.2
2018-04-08T00:07:21.217Z,13.2
2018-04-08T00:08:58.821Z,13.2
2018-04-08T00:10:26.290Z,13.3
2018-04-08T00:11:51.223Z,13.2
2018-04-08T00:13:11.044Z,13.3
2018-04-08T00:14:30.863Z,13.4
2018-04-08T00:15:50.692Z,13.3
2018-04-08T00:17:10.566Z,13.3
2018-04-08T00:18:30.429Z,13.3
2018-04-08T00:20:02.904Z,13.3
2018-04-08T00:21:27.783Z,13.3
2018-04-08T00:22:55.223Z,13.3
2018-04-08T00:24:27.742Z,13.2
2018-04-08T00:25:47.574Z,13.3
2018-04-08T00:27:07.425Z,13.3
2018-04-08T00:28:27.330Z,13.2
2018-04-08T00:29:54.765Z,13.1
2018-04-08T00:31:14.622Z,13.2
2018-04-08T00:32:44.585Z,13.2
2018-04-08T00:34:14.584Z,13.2
2018-04-08T00:35:34.426Z,13.2
2018-04-08T00:36:54.277Z,13.2
2018-04-08T00:38:14.116Z,13.2
2018-04-08T00:39:41.576Z,13.1
2018-04-08T00:41:03.984Z,13.1
2018-04-08T00:42:23.845Z,13.2
2018-04-08T00:43:48.723Z,13.2
2018-04-08T00:45:11.083Z,13.2
2018-04-08T00:46:38.514Z,13.2
2018-04-08T00:48:05.927Z,13.2
2018-04-08T00:49:33.381Z,13.2
2018-04-08T00:50:55.731Z,13.1
2018-04-08T00:52:15.579Z,13.1
2018-04-08T00:53:37.965Z,13.1
2018-04-08T00:54:57.799Z,13.1
2018-04-08T00:56:20.209Z,13.1
2018-04-08T00:57:45.106Z,13.2
2018-04-08T00:59:12.523Z,13.2
2018-04-08T01:00:39.970Z,13
2018-04-08T01:02:02.359Z,13.1
2018-04-08T01:03:22.243Z,13.2
2018-04-08T01:04:42.095Z,13.1
2018-04-08T01:06:01.972Z,13
2018-04-08T01:07:21.876Z,13.1
2018-04-08T01:08:44.249Z,13
2018-04-08T01:10:04.119Z,13
2018-04-08T01:11:23.940Z,12.9
2018-04-08T01:12:48.818Z,12.9
2018-04-08T01:14:08.641Z,13
2018-04-08T01:15:28.503Z,13
2018-04-08T01:16:48.323Z,12.9
2018-04-08T01:18:08.205Z,13
2018-04-08T01:19:28.065Z,13
2018-04-08T01:20:47.888Z,13
2018-04-08T01:22:10.244Z,13.1
2018-04-08T01:23:30.122Z,13.1
2018-04-08T01:24:52.520Z,13.1
2018-04-08T01:26:12.348Z,13
2018-04-08T01:27:32.244Z,13
2018-04-08T01:28:52.108Z,13
2018-04-08T01:30:22.080Z,13.1
2018-04-08T01:31:41.963Z,13
2018-04-08T01:33:01.860Z,13
2018-04-08T01:34:21.707Z,13
2018-04-08T01:35:41.594Z,13
2018-04-08T01:37:19.136Z,12.9
2018-04-08T01:38:38.952Z,13
2018-04-08T01:40:01.357Z,13
2018-04-08T01:41:21.175Z,13.1
2018-04-08T01:42:46.127Z,13
2018-04-08T01:44:11.076Z,13
2018-04-08T01:45:33.455Z,13.1
2018-04-08T01:46:53.278Z,13
2018-04-08T01:48:15.638Z,12.9
2018-04-08T01:49:40.584Z,13
2018-04-08T01:51:02.983Z,12.9
2018-04-08T01:52:22.858Z,12.9
2018-04-08T01:53:45.212Z,12.9
2018-04-08T01:55:10.094Z,12.9
2018-04-08T01:56:40.060Z,13
2018-04-08T01:57:59.899Z,13
2018-04-08T01:59:19.786Z,13
2018-04-08T02:00:42.178Z,13.1
2018-04-08T02:02:02.035Z,12.9
2018-04-08T02:03:37.072Z,13.1
2018-04-08T02:05:01.979Z,12.9
2018-04-08T02:06:21.837Z,13
2018-04-08T02:07:46.740Z,13.1
2018-04-08T02:09:06.587Z,12.9
2018-04-08T02:10:26.470Z,12.9
2018-04-08T02:11:53.909Z,12.9
2018-04-08T02:13:13.730Z,12.9
2018-04-08T02:14:33.600Z,12.9
2018-04-08T02:15:53.428Z,12.9
2018-04-08T02:17:20.899Z,13
2018-04-08T02:18:43.302Z,12.9
2018-04-08T02:20:03.127Z,12.8
2018-04-08T02:21:22.971Z,12.8
2018-04-08T02:22:52.937Z,12.8
2018-04-08T02:24:12.771Z,12.9
2018-04-08T02:25:35.123Z,12.8
2018-04-08T02:26:54.963Z,12.8
2018-04-08T02:28:14.789Z,12.9
2018-04-08T02:29:37.145Z,12.9
2018-04-08T02:30:59.512Z,13
2018-04-08T02:32:19.333Z,12.9
2018-04-08T02:33:46.793Z,12.9
2018-04-08T02:35:06.642Z,12.9
2018-04-08T02:36:29.041Z,12.9
2018-04-08T02:37:48.897Z,12.9
2018-04-08T02:39:11.293Z,12.9
2018-04-08T02:40:36.254Z,12.9
2018-04-08T02:41:58.626Z,12.8
2018-04-08T02:43:18.499Z,12.7
2018-04-08T02:44:40.856Z,12.8
2018-04-08T02:46:00.765Z,12.9
2018-04-08T02:47:20.623Z,12.8
2018-04-08T02:48:40.444Z,12.8
2018-04-08T02:50:00.270Z,12.8
2018-04-08T02:51:20.152Z,12.9
2018-04-08T02:52:39.975Z,12.9
2018-04-08T02:54:09.985Z,12.9
2018-04-08T02:55:32.391Z,12.9
2018-04-08T02:57:02.351Z,12.8
2018-04-08T02:58:27.245Z,12.8
2018-04-08T02:59:47.067Z,12.8
2018-04-08T03:01:06.913Z,12.9
2018-04-08T03:02:29.275Z,12.8
2018-04-08T03:03:49.126Z,12.9
2018-04-08T03:05:11.534Z,12.9
2018-04-08T03:06:31.442Z,12.9
2018-04-08T03:07:51.290Z,13
2018-04-08T03:09:11.173Z,12.8
2018-04-08T03:10:31.027Z,12.8
2018-04-08T03:11:50.864Z,12.7
2018-04-08T03:13:13.221Z,12.8
2018-04-08T03:14:38.115Z,12.9
2018-04-08T03:15:57.959Z,12.8
2018-04-08T03:17:22.859Z,12.7
2018-04-08T03:18:47.792Z,12.6
2018-04-08T03:20:10.157Z,12.6
2018-04-08T03:21:32.530Z,12.7
2018-04-08T03:22:52.407Z,12.9
2018-04-08T03:24:24.948Z,13
2018-04-08T03:25:44.774Z,12.8
2018-04-08T03:27:04.592Z,12.8
2018-04-08T03:28:26.960Z,12.7
2018-04-08T03:29:49.360Z,12.7
2018-04-08T03:31:09.233Z,12.8
2018-04-08T03:32:34.139Z,12.7
2018-04-08T03:33:53.975Z,12.8
2018-04-08T03:35:13.794Z,12.9
2018-04-08T03:36:36.167Z,12.8
2018-04-08T03:37:58.530Z,12.7
2018-04-08T03:39:18.357Z,12.8
2018-04-08T03:40:40.793Z,12.8
2018-04-08T03:42:00.631Z,12.7
2018-04-08T03:43:30.659Z,12.8
2018-04-08T03:44:50.516Z,12.7
2018-04-08T03:46:17.967Z,12.7
2018-04-08T03:47:37.797Z,12.6
2018-04-08T03:48:57.660Z,12.6
2018-04-08T03:50:20.066Z,12.6
2018-04-08T03:51:39.896Z,12.7
2018-04-08T03:53:04.814Z,12.7
2018-04-08T03:54:34.784Z,12.7
2018-04-08T03:55:57.198Z,12.8
2018-04-08T03:57:27.167Z,12.7
2018-04-08T03:58:46.991Z,12.7
2018-04-08T04:00:14.417Z,12.8
2018-04-08T04:01:52.014Z,12.7
2018-04-08T04:03:14.370Z,12.8
2018-04-08T04:04:36.775Z,12.7
2018-04-08T04:05:56.629Z,12.7
2018-04-08T04:07:18.978Z,12.6
2018-04-08T04:08:38.842Z,12.7
2018-04-08T04:09:58.672Z,12.7
2018-04-08T04:11:21.110Z,12.6
2018-04-08T04:12:53.620Z,12.6
2018-04-08T04:14:13.446Z,12.7
2018-04-08T04:15:38.341Z,12.5
2018-04-08T04:17:03.223Z,12.8
2018-04-08T04:18:25.583Z,12.8
2018-04-08T04:19:45.411Z,12.7
2018-04-08T04:21:07.818Z,12.6
2018-04-08T04:22:27.698Z,12.6
2018-04-08T04:23:50.053Z,12.6
2018-04-08T04:25:09.869Z,12.6
2018-04-08T04:26:32.238Z,12.7
2018-04-08T04:27:54.664Z,12.6
2018-04-08T04:29:19.591Z,12.8
2018-04-08T04:30:39.419Z,12.5
2018-04-08T04:32:01.784Z,12.5
2018-04-08T04:33:24.146Z,12.5
2018-04-08T04:34:44.022Z,12.6
2018-04-08T04:36:03.894Z,12.7
2018-04-08T04:37:23.715Z,12.6
2018-04-08T04:38:43.556Z,12.7
2018-04-08T04:40:03.382Z,12.6
2018-04-08T04:41:23.254Z,12.6
2018-04-08T04:42:53.198Z,12.6
2018-04-08T04:44:15.627Z,12.5
2018-04-08T04:45:35.519Z,12.6
2018-04-08T04:46:57.921Z,12.6
2018-04-08T04:48:17.807Z,12.5
2018-04-08T04:49:40.173Z,12.6
2018-04-08T04:51:12.664Z,12.5
2018-04-08T04:52:32.495Z,12.5
2018-04-08T04:53:52.316Z,12.6
2018-04-08T04:55:17.250Z,12.5
2018-04-08T04:56:44.693Z,12.6
2018-04-08T04:58:14.674Z,12.6
2018-04-08T04:59:34.499Z,12.5
2018-04-08T05:00:56.909Z,12.5
2018-04-08T05:02:19.293Z,12.5
2018-04-08T05:03:39.146Z,12.5
2018-04-08T05:05:11.630Z,12.6
2018-04-08T05:06:33.979Z,12.6
2018-04-08T05:07:56.382Z,12.4
2018-04-08T05:09:18.734Z,12.4
2018-04-08T05:10:38.565Z,12.5
2018-04-08T05:11:58.441Z,12.5
2018-04-08T05:13:18.328Z,12.6
2018-04-08T05:14:45.808Z,12.7
2018-04-08T05:16:05.654Z,12.6
2018-04-08T05:17:25.535Z,12.5
2018-04-08T05:18:53.009Z,12.6
2018-04-08T05:20:15.378Z,12.5
2018-04-08T05:21:35.196Z,12.6
2018-04-08T05:22:55.079Z,12.9
2018-04-08T05:24:14.944Z,13.2
2018-04-08T05:25:34.786Z,13.3
2018-04-08T05:26:57.148Z,12.9
2018-04-08T05:28:17.008Z,12.8
2018-04-08T05:29:39.363Z,12.6
2018-04-08T05:31:01.783Z,12.7
2018-04-08T05:32:21.613Z,12.6
2018-04-08T05:33:41.428Z,12.7
2018-04-08T05:35:13.926Z,12.8
2018-04-08T05:36:33.784Z,13
2018-04-08T05:37:56.184Z,13
2018-04-08T05:39:16.033Z,12.9
2018-04-08T05:40:38.399Z,12.8
2018-04-08T05:41:58.246Z,12.8
2018-04-08T05:43:18.067Z,13
2018-04-08T05:44:42.985Z,13
2018-04-08T05:46:05.371Z,13
2018-04-08T05:47:27.719Z,13.2
2018-04-08T05:48:47.604Z,13
2018-04-08T05:50:09.957Z,13.2
2018-04-08T05:51:29.781Z,13.1
2018-04-08T05:52:49.609Z,13.1
2018-04-08T05:54:09.487Z,13
2018-04-08T05:55:31.835Z,12.9
2018-04-08T05:56:51.681Z,12.8
2018-04-08T05:58:16.566Z,12.8
2018-04-08T05:59:36.395Z,12.8
2018-04-08T06:01:03.817Z,13
2018-04-08T06:02:28.714Z,13.1
2018-04-08T06:03:51.165Z,13.2
2018-04-08T06:05:13.521Z,13.3
2018-04-08T06:06:35.909Z,13.2
2018-04-08T06:08:05.934Z,13.3
2018-04-08T06:09:25.842Z,13.2
2018-04-08T06:10:48.200Z,13.3
2018-04-08T06:12:15.704Z,13.1
2018-04-08T06:13:38.049Z,13.3
2018-04-08T06:15:02.976Z,13.5
2018-04-08T06:16:22.826Z,13.3
2018-04-08T06:17:42.691Z,13.3
2018-04-08T06:19:02.545Z,13.4
2018-04-08T06:20:35.013Z,13.5
2018-04-08T06:21:54.895Z,13.5
2018-04-08T06:23:17.304Z,13.6
2018-04-08T06:24:37.160Z,13.7
2018-04-08T06:26:14.724Z,13.6
2018-04-08T06:27:42.131Z,13.7
2018-04-08T06:29:04.475Z,13.6
2018-04-08T06:30:24.350Z,13.6
2018-04-08T06:31:46.720Z,13.5
2018-04-08T06:33:14.165Z,13.4
2018-04-08T06:34:36.511Z,13.3
2018-04-08T06:36:01.450Z,13.4
2018-04-08T06:37:21.276Z,13.5
2018-04-08T06:38:41.096Z,13.6
2018-04-08T06:40:00.946Z,13.6
2018-04-08T06:41:30.915Z,13.5
2018-04-08T06:42:50.774Z,13.6
2018-04-08T06:44:25.806Z,13.7
2018-04-08T06:45:45.711Z,13.6
2018-04-08T06:47:05.620Z,13.6
2018-04-08T06:48:28.036Z,13.6
2018-04-08T06:49:50.436Z,13.7
2018-04-08T06:51:10.340Z,13.7
2018-04-08T06:52:32.702Z,13.7
2018-04-08T06:53:52.567Z,13.7
2018-04-08T06:55:17.449Z,13.7
2018-04-08T06:56:39.829Z,13.8
2018-04-08T06:57:59.714Z,13.9
2018-04-08T06:59:22.068Z,13.9
2018-04-08T07:00:44.424Z,13.8
2018-04-08T07:02:04.247Z,13.8
2018-04-08T07:03:31.674Z,13.9
2018-04-08T07:04:54.051Z,13.8
2018-04-08T07:06:13.906Z,13.9
2018-04-08T07:07:38.854Z,14
2018-04-08T07:09:03.740Z,14.1
2018-04-08T07:10:23.612Z,14.1
2018-04-08T07:11:43.465Z,14.1
2018-04-08T07:13:03.284Z,14.2
2018-04-08T07:14:25.666Z,14.1
2018-04-08T07:15:45.517Z,14.2
2018-04-08T07:17:05.422Z,14.1
2018-04-08T07:18:30.421Z,14.1
2018-04-08T07:19:52.782Z,14.1
2018-04-08T07:21:15.175Z,14.2
2018-04-08T07:22:35.074Z,14.2
2018-04-08T07:24:02.514Z,14.3
2018-04-08T07:25:22.330Z,14.2
2018-04-08T07:26:44.679Z,14.3
2018-04-08T07:28:04.578Z,14.3
2018-04-08T07:29:29.510Z,14.4
2018-04-08T07:30:49.362Z,14.5
2018-04-08T07:32:21.841Z,14.5
2018-04-08T07:33:44.211Z,14.5
2018-04-08T07:35:06.578Z,14.5
2018-04-08T07:36:26.400Z,14.5
2018-04-08T07:37:46.219Z,14.5
2018-04-08T07:39:06.048Z,14.5
2018-04-08T07:40:25.876Z,14.6
2018-04-08T07:41:45.746Z,14.6
2018-04-08T07:43:08.099Z,14.4
2018-04-08T07:44:30.487Z,14.5
2018-04-08T07:45:50.368Z,14.6
2018-04-08T07:47:10.239Z,14.6
2018-04-08T07:48:30.144Z,14.6
2018-04-08T07:49:50.011Z,14.7
2018-04-08T07:51:09.875Z,14.7
2018-04-08T07:52:34.789Z,14.6
2018-04-08T07:53:59.683Z,14.6
2018-04-08T07:55:19.507Z,14.7
2018-04-08T07:56:39.388Z,14.8
2018-04-08T07:57:59.249Z,14.7
2018-04-08T07:59:24.134Z,14.7
2018-04-08T08:00:43.975Z,14.8
2018-04-08T08:02:06.341Z,14.7
2018-04-08T08:03:26.188Z,14.8
2018-04-08T08:04:51.112Z,14.9
2018-04-08T08:06:10.937Z,14.9
2018-04-08T08:07:35.827Z,15.1
2018-04-08T08:08:58.237Z,15
2018-04-08T08:10:18.080Z,14.9
2018-04-08T08:11:37.896Z,14.9
2018-04-08T08:13:12.916Z,15.1
2018-04-08T08:14:32.762Z,15.1
2018-04-08T08:15:55.133Z,15.1
2018-04-08T08:17:17.535Z,15.2
2018-04-08T08:18:37.353Z,15.3
2018-04-08T08:19:57.176Z,15.3
2018-04-08T08:21:22.121Z,15.3
2018-04-08T08:22:49.564Z,15.3
2018-04-08T08:24:09.431Z,15.5
2018-04-08T08:25:29.307Z,15.4
2018-04-08T08:26:49.287Z,15.5
2018-04-08T08:28:09.166Z,15.7
2018-04-08T08:29:29.009Z,15.7
2018-04-08T08:30:48.855Z,15.6
2018-04-08T08:32:08.685Z,15.5
2018-04-08T08:33:28.511Z,15.6
2018-04-08T08:34:50.929Z,15.6
2018-04-08T08:36:10.900Z,15.6
2018-04-08T08:37:30.757Z,15.7
2018-04-08T08:38:53.171Z,15.7
2018-04-08T08:40:20.629Z,15.7
2018-04-08T08:41:40.515Z,15.7
2018-04-08T08:43:00.406Z,15.7
2018-04-08T08:44:20.320Z,15.6
2018-04-08T08:45:42.732Z,15.6
2018-04-08T08:47:02.604Z,15.8
2018-04-08T08:48:25.022Z,15.8
2018-04-08T08:49:44.943Z,15.7
2018-04-08T08:51:09.852Z,15.7
2018-04-08T08:52:39.810Z,15.8
2018-04-08T08:53:59.667Z,15.9
2018-04-08T08:55:24.575Z,15.9
2018-04-08T08:56:44.414Z,15.9
2018-04-08T08:58:09.316Z,15.8
2018-04-08T08:59:29.204Z,15.9
2018-04-08T09:00:56.626Z,16
2018-04-08T09:02:16.457Z,16
2018-04-08T09:03:38.833Z,16
2018-04-08T09:04:58.661Z,15.9
2018-04-08T09:06:21.058Z,16
2018-04-08T09:07:43.401Z,15.9
2018-04-08T09:09:08.296Z,15.9
2018-04-08T09:10:33.185Z,16
2018-04-08T09:11:53.105Z,16
2018-04-08T09:13:12.930Z,15.9
2018-04-08T09:14:35.303Z,15.9
2018-04-08T09:15:57.657Z,16
2018-04-08T09:17:20.041Z,15.9
2018-04-08T09:18:42.395Z,16
2018-04-08T09:20:02.212Z,16
2018-04-08T09:21:22.067Z,16
2018-04-08T09:22:52.079Z,16
2018-04-08T09:24:11.945Z,16
2018-04-08T09:25:34.366Z,16.1
2018-04-08T09:26:56.728Z,16.1
2018-04-08T09:28:19.088Z,16.1
2018-04-08T09:29:39.025Z,16.1
2018-04-08T09:30:58.858Z,16.2
2018-04-08T09:32:21.222Z,16.3
2018-04-08T09:33:43.578Z,16.2
2018-04-08T09:35:03.480Z,16.1
2018-04-08T09:36:23.410Z,16.2
2018-04-08T09:37:43.244Z,16.2
2018-04-08T09:39:03.068Z,16.2
2018-04-08T09:40:22.943Z,16.2
2018-04-08T09:41:42.767Z,16.2
2018-04-08T09:43:05.148Z,16.2
2018-04-08T09:44:27.540Z,16.3
2018-04-08T09:45:47.411Z,16.3
2018-04-08T09:47:07.242Z,16.4
2018-04-08T09:48:29.631Z,16.2
2018-04-08T09:49:49.484Z,16.2
2018-04-08T09:51:11.832Z,16.2
2018-04-08T09:52:36.712Z,16.2
2018-04-08T09:53:59.066Z,16.2
2018-04-08T09:55:18.957Z,16.3
2018-04-08T09:56:41.336Z,16.3
2018-04-08T09:58:01.214Z,16.3
2018-04-08T09:59:21.094Z,16.3
2018-04-08T10:00:43.462Z,16.4
2018-04-08T10:02:03.285Z,16.3
2018-04-08T10:03:28.225Z,16.2
2018-04-08T10:04:48.046Z,16.2
2018-04-08T10:06:07.872Z,16.3
2018-04-08T10:07:27.709Z,16.1
2018-04-08T10:08:47.531Z,16.1
2018-04-08T10:10:22.534Z,16.2
2018-04-08T10:11:42.363Z,16.3
2018-04-08T10:13:04.808Z,16.3
2018-04-08T10:14:29.717Z,16.2
2018-04-08T10:15:52.082Z,16.3
2018-04-08T10:17:19.535Z,16.4
2018-04-08T10:18:46.962Z,16.4
2018-04-08T10:20:14.447Z,16.4
2018-04-08T10:21:39.369Z,16.4
2018-04-08T10:22:59.224Z,16.4
2018-04-08T10:24:19.125Z,16.4
2018-04-08T10:25:41.480Z,16.4
2018-04-08T10:27:03.834Z,16.3
2018-04-08T10:28:23.711Z,16.4
2018-04-08T10:29:43.540Z,16.4
2018-04-08T10:31:03.396Z,16.5
2018-04-08T10:32:25.749Z,16.5
2018-04-08T10:33:45.586Z,16.5
2018-04-08T10:35:05.409Z,16.6
2018-04-08T10:36:25.271Z,16.6
2018-04-08T10:37:45.124Z,16.6
2018-04-08T10:39:05.161Z,16.5
2018-04-08T10:40:25.125Z,16.6
2018-04-08T10:41:45.136Z,16.6
2018-04-08T10:43:05.104Z,16.5
2018-04-08T10:44:25.042Z,16.5
2018-04-08T10:45:44.988Z,16.5
2018-04-08T10:47:04.990Z,16.5
2018-04-08T10:48:35.094Z,16.5
2018-04-08T10:49:55.032Z,16.4
2018-04-08T10:51:14.999Z,16.2
2018-04-08T10:52:37.545Z,16.4
2018-04-08T10:54:05.060Z,16.4
2018-04-08T10:55:25.033Z,16.3
2018-04-08T10:56:47.413Z,16.4
2018-04-08T10:58:07.339Z,16.4
2018-04-08T10:59:29.784Z,16.3
2018-04-08T11:00:49.680Z,16.3
2018-04-08T11:02:09.550Z,16.4
2018-04-08T11:03:34.511Z,16.4
2018-04-08T11:04:54.420Z,16.4
2018-04-08T11:06:19.515Z,16.4
2018-04-08T11:07:46.940Z,16.4
2018-04-08T11:09:06.796Z,16.3
2018-04-08T11:10:26.677Z,16.3
2018-04-08T11:11:46.499Z,16.4
2018-04-08T11:13:06.348Z,16.4
2018-04-08T11:14:28.702Z,16.3
2018-04-08T11:15:48.581Z,16.3
2018-04-08T11:17:10.997Z,16.3
2018-04-08T11:18:33.355Z,16.4
2018-04-08T11:19:58.260Z,16.4
2018-04-08T11:21:18.091Z,16.4
2018-04-08T11:22:40.442Z,16.4
2018-04-08T11:24:00.310Z,16.4
2018-04-08T11:25:25.324Z,16.3
2018-04-08T11:26:45.190Z,16.2
2018-04-08T11:28:05.040Z,16.4
2018-04-08T11:29:24.868Z,16.4
2018-04-08T11:30:44.766Z,16.5
2018-04-08T11:32:04.621Z,16.7
2018-04-08T11:33:24.531Z,16.3
2018-04-08T11:34:44.434Z,16.5
2018-04-08T11:36:06.819Z,16.5
2018-04-08T11:37:31.706Z,16.5
2018-04-08T11:38:54.114Z,16.5
2018-04-08T11:40:14.016Z,16.5
2018-04-08T11:41:33.911Z,16.5
2018-04-08T11:42:56.263Z,16.5
2018-04-08T11:44:16.089Z,16.6
2018-04-08T11:45:46.060Z,16.6
2018-04-08T11:47:05.887Z,16.5
2018-04-08T11:48:28.291Z,16.5
2018-04-08T11:49:50.646Z,16.6
2018-04-08T11:51:15.540Z,16.6
2018-04-08T11:52:35.418Z,16.7
2018-04-08T11:53:55.244Z,16.8
2018-04-08T11:55:15.089Z,16.9
2018-04-08T11:56:37.442Z,16.8
2018-04-08T11:57:59.833Z,16.9
2018-04-08T11:59:24.766Z,17
2018-04-08T12:00:47.211Z,17.2
2018-04-08T12:02:12.106Z,17.1
2018-04-08T12:03:31.937Z,17.2
2018-04-08T12:04:51.758Z,17.3
2018-04-08T12:06:11.627Z,17.4
2018-04-08T12:07:31.446Z,17.4
2018-04-08T12:08:53.837Z,17.4
2018-04-08T12:10:13.707Z,17.6
2018-04-08T12:11:33.533Z,17.6
2018-04-08T12:12:58.471Z,17.7
2018-04-08T12:14:25.942Z,17.8
2018-04-08T12:15:53.343Z,17.9
2018-04-08T12:17:15.705Z,18.1
2018-04-08T12:18:40.596Z,18.3
2018-04-08T12:20:00.478Z,18.5
2018-04-08T12:21:22.872Z,18.6
2018-04-08T12:22:42.701Z,18.7
2018-04-08T12:24:02.519Z,18.7
2018-04-08T12:25:24.869Z,18.9
2018-04-08T12:26:44.694Z,19
2018-04-08T12:28:09.600Z,19.1
2018-04-08T12:29:29.462Z,19.2
2018-04-08T12:30:51.865Z,19.3
2018-04-08T12:32:14.249Z,19.4
2018-04-08T12:33:36.628Z,19.4
2018-04-08T12:34:59.045Z,19.5
2018-04-08T12:36:18.949Z,19.6
2018-04-08T12:37:41.317Z,19.6
2018-04-08T12:39:06.211Z,19.8
2018-04-08T12:40:31.149Z,19.8
2018-04-08T12:41:56.044Z,19.9
2018-04-08T12:43:20.917Z,20
2018-04-08T12:44:45.837Z,20.1
2018-04-08T12:46:05.661Z,20.1
2018-04-08T12:47:28.044Z,20.2
2018-04-08T12:48:47.899Z,20.2
2018-04-08T12:50:10.265Z,20.1
2018-04-08T12:51:30.156Z,20.2
2018-04-08T12:52:50.008Z,20.1
2018-04-08T12:54:19.958Z,20.3
2018-04-08T12:55:44.832Z,20.3
2018-04-08T12:57:04.674Z,20.3
2018-04-08T12:58:24.544Z,20.4
2018-04-08T12:59:46.902Z,20.4
2018-04-08T13:01:14.352Z,20.6
2018-04-08T13:02:36.747Z,20.6
2018-04-08T13:03:56.581Z,20.6
2018-04-08T13:05:26.541Z,20.7
2018-04-08T13:06:48.944Z,20.7
2018-04-08T13:08:11.297Z,20.7
2018-04-08T13:09:31.124Z,20.8
2018-04-08T13:10:56.011Z,20.8
2018-04-08T13:12:18.379Z,20.8
2018-04-08T13:13:40.743Z,20.8
2018-04-08T13:15:03.098Z,21.1
2018-04-08T13:16:25.455Z,21.2
2018-04-08T13:17:55.407Z,21.2
2018-04-08T13:19:17.773Z,21.3
2018-04-08T13:20:42.665Z,21.3
2018-04-08T13:22:07.555Z,21.3
2018-04-08T13:23:32.442Z,21.3
2018-04-08T13:24:52.273Z,21.2
2018-04-08T13:26:12.092Z,21.3
2018-04-08T13:27:31.969Z,21.3
2018-04-08T13:28:54.342Z,21.3
2018-04-08T13:30:16.754Z,21.4
2018-04-08T13:31:39.188Z,21.4
2018-04-08T13:32:59.054Z,21.4
2018-04-08T13:34:24.024Z,21.6
2018-04-08T13:35:59.082Z,21.6
2018-04-08T13:37:24.036Z,21.7
2018-04-08T13:38:43.940Z,21.7
2018-04-08T13:40:03.800Z,21.6
2018-04-08T13:41:23.661Z,21.7
2018-04-08T13:42:51.075Z,21.7
2018-04-08T13:44:13.452Z,21.7
2018-04-08T13:45:35.805Z,21.8
2018-04-08T13:46:55.629Z,21.8
2018-04-08T13:48:15.477Z,21.7
2018-04-08T13:49:35.321Z,21.8
2018-04-08T13:50:55.140Z,21.8
2018-04-08T13:52:20.064Z,21.8
2018-04-08T13:53:39.922Z,21.7
2018-04-08T13:54:59.813Z,21.8
2018-04-08T13:56:19.681Z,21.9
2018-04-08T13:57:44.578Z,21.9
2018-04-08T13:59:04.450Z,22
2018-04-08T14:00:29.329Z,22.1
2018-04-08T14:01:59.266Z,22.1
2018-04-08T14:03:19.139Z,22.1
2018-04-08T14:04:39.005Z,22.2
2018-04-08T14:05:58.863Z,22.3
2018-04-08T14:07:21.231Z,22.3
2018-04-08T14:08:46.114Z,22.3
2018-04-08T14:10:13.561Z,22.3
2018-04-08T14:11:33.408Z,22.3
2018-04-08T14:12:55.756Z,22.3
2018-04-08T14:14:23.252Z,22.4
2018-04-08T14:15:45.615Z,22.4
2018-04-08T14:17:05.473Z,22.4
2018-04-08T14:18:35.440Z,22.4
2018-04-08T14:19:55.260Z,22.4
2018-04-08T14:21:17.613Z,22.5
2018-04-08T14:22:37.447Z,22.5
2018-04-08T14:23:57.270Z,22.6
2018-04-08T14:25:19.618Z,22.6
2018-04-08T14:26:41.962Z,22.6
2018-04-08T14:28:04.328Z,22.7
2018-04-08T14:29:24.185Z,22.7
2018-04-08T14:30:44.031Z,22.8
2018-04-08T14:32:06.442Z,22.7
2018-04-08T14:33:28.816Z,22.7
2018-04-08T14:34:53.723Z,22.7
2018-04-08T14:36:18.663Z,22.7
2018-04-08T14:37:38.547Z,22.8
2018-04-08T14:39:08.520Z,22.8
2018-04-08T14:40:28.384Z,22.8
2018-04-08T14:41:48.254Z,22.6
2018-04-08T14:43:10.615Z,22.6
2018-04-08T14:44:32.984Z,22.6
2018-04-08T14:45:52.848Z,22.6
2018-04-08T14:47:33.011Z,22.7
2018-04-08T14:49:08.036Z,22.7
2018-04-08T14:50:27.896Z,22.7
2018-04-08T14:51:47.767Z,22.7
2018-04-08T14:53:07.634Z,22.6
2018-04-08T14:54:40.118Z,22.6
2018-04-08T14:55:59.955Z,22.8
2018-04-08T14:57:19.792Z,23.1
2018-04-08T14:58:49.807Z,23
2018-04-08T15:00:09.650Z,23.1
2018-04-08T15:01:32.057Z,23.1
2018-04-08T15:02:56.979Z,23
2018-04-08T15:04:16.811Z,23
2018-04-08T15:05:36.680Z,23
2018-04-08T15:07:11.692Z,22.9
2018-04-08T15:08:41.701Z,22.9
2018-04-08T15:10:06.572Z,22.8
2018-04-08T15:11:34.027Z,22.8
2018-04-08T15:13:01.460Z,22.8
2018-04-08T15:14:21.287Z,22.9
2018-04-08T15:15:41.104Z,22.8
2018-04-08T15:17:00.927Z,22.8
2018-04-08T15:18:20.749Z,22.9
2018-04-08T15:19:40.602Z,22.9
2018-04-08T15:21:08.044Z,22.8
2018-04-08T15:22:27.895Z,22.8
2018-04-08T15:23:50.274Z,22.7
2018-04-08T15:25:10.102Z,22.6
2018-04-08T15:26:29.927Z,22.6
2018-04-08T15:27:52.290Z,22.6
2018-04-08T15:29:12.109Z,22.4
2018-04-08T15:30:31.929Z,22.3
2018-04-08T15:31:51.817Z,22.4
2018-04-08T15:33:11.653Z,22.4
2018-04-08T15:34:36.562Z,22.3
2018-04-08T15:35:56.394Z,22.2
2018-04-08T15:37:16.212Z,22.2
2018-04-08T15:38:38.644Z,22
2018-04-08T15:40:01.007Z,21.7
2018-04-08T15:41:20.885Z,21.7
2018-04-08T15:42:50.949Z,21.7
2018-04-08T15:44:10.808Z,21.7
2018-04-08T15:45:40.760Z,21.6
2018-04-08T15:47:00.603Z,21.6
2018-04-08T15:48:20.472Z,21.6
2018-04-08T15:49:40.307Z,21.5
2018-04-08T15:51:00.144Z,21.5
2018-04-08T15:52:19.976Z,21.5
2018-04-08T15:53:39.806Z,21.6
2018-04-08T15:54:59.631Z,21.7
2018-04-08T15:56:19.470Z,21.8
2018-04-08T15:57:39.344Z,22
2018-04-08T15:58:59.164Z,21.6
2018-04-08T16:00:21.590Z,21.6
2018-04-08T16:01:43.938Z,21.9
2018-04-08T16:03:03.821Z,21.7
2018-04-08T16:04:23.708Z,21.8
2018-04-08T16:05:43.584Z,21.7
2018-04-08T16:07:18.739Z,21.7
2018-04-08T16:08:48.861Z,21.6
2018-04-08T16:10:11.283Z,21.6
2018-04-08T16:11:31.168Z,21.6
2018-04-08T16:12:53.558Z,21.5
2018-04-08T16:14:13.463Z,21.2
2018-04-08T16:15:35.846Z,21.3
2018-04-08T16:16:55.714Z,21.2
2018-04-08T16:18:18.100Z,21.2
2018-04-08T16:19:50.576Z,21.1
2018-04-08T16:21:15.466Z,21.1
2018-04-08T16:22:35.284Z,21
2018-04-08T16:23:55.106Z,21
2018-04-08T16:25:14.995Z,20.9
2018-04-08T16:26:37.402Z,20.9
2018-04-08T16:28:09.948Z,20.8
2018-04-08T16:29:29.835Z,20.7
2018-04-08T16:30:49.663Z,20.7
2018-04-08T16:32:14.590Z,20.7
2018-04-08T16:33:34.433Z,20.7
2018-04-08T16:34:56.793Z,20.6
2018-04-08T16:36:16.622Z,20.6
2018-04-08T16:37:46.568Z,20.5
2018-04-08T16:39:06.400Z,20.5
2018-04-08T16:40:26.259Z,20.4
2018-04-08T16:41:48.664Z,20.5
2018-04-08T16:43:11.024Z,20.5
2018-04-08T16:44:30.892Z,20.4
2018-04-08T16:45:50.770Z,20.4
2018-04-08T16:47:10.598Z,20.4
2018-04-08T16:48:35.485Z,20.4
2018-04-08T16:49:55.313Z,20.4
2018-04-08T16:51:15.137Z,20.4
2018-04-08T16:52:40.055Z,20.3
2018-04-08T16:54:04.934Z,20.3
2018-04-08T16:55:29.875Z,20.3
2018-04-08T16:56:49.703Z,20.3
2018-04-08T16:58:09.554Z,20.1
2018-04-08T16:59:34.434Z,20
2018-04-08T17:01:01.861Z,19.9
2018-04-08T17:02:24.263Z,19.9
2018-04-08T17:03:46.692Z,19.9
2018-04-08T17:05:06.533Z,19.8
2018-04-08T17:06:26.374Z,19.8
2018-04-08T17:07:48.772Z,19.8
2018-04-08T17:09:08.601Z,19.8
2018-04-08T17:10:30.972Z,19.7
2018-04-08T17:11:53.398Z,19.6
2018-04-08T17:13:13.248Z,19.5
2018-04-08T17:14:33.123Z,19.5
2018-04-08T17:15:55.489Z,19.4
2018-04-08T17:17:15.311Z,19.5
2018-04-08T17:18:35.136Z,19.4
2018-04-08T17:19:54.957Z,19.4
2018-04-08T17:21:22.380Z,19.1
2018-04-08T17:22:42.201Z,19.4
2018-04-08T17:24:02.090Z,19.3
2018-04-08T17:25:29.563Z,19.3
2018-04-08T17:26:49.389Z,19.2
2018-04-08T17:28:09.223Z,19.2
2018-04-08T17:29:29.038Z,19.1
2018-04-08T17:30:48.869Z,19.1
2018-04-08T17:32:08.702Z,19.1
2018-04-08T17:33:28.566Z,19
2018-04-08T17:34:50.912Z,19
2018-04-08T17:36:10.738Z,18.9
2018-04-08T17:37:30.613Z,18.9
2018-04-08T17:38:53.035Z,18.9
2018-04-08T17:40:18.008Z,18.8
2018-04-08T17:41:37.859Z,18.8
2018-04-08T17:42:57.744Z,18.8
2018-04-08T17:44:17.652Z,18.7
2018-04-08T17:45:42.580Z,18.7
2018-04-08T17:47:02.457Z,18.6
2018-04-08T17:48:22.289Z,18.6
2018-04-08T17:49:44.701Z,18.6
2018-04-08T17:51:09.641Z,18.5
2018-04-08T17:52:37.063Z,18.5
2018-04-08T17:54:04.515Z,18.5
2018-04-08T17:55:24.344Z,18.4
2018-04-08T17:56:44.185Z,18.4
2018-04-08T17:58:04.034Z,18.3
2018-04-08T17:59:28.978Z,18.3
2018-04-08T18:00:49.190Z,18.2
2018-04-08T18:02:09.045Z,18.2
2018-04-08T18:03:31.448Z,18.2
2018-04-08T18:04:53.824Z,18.2
2018-04-08T18:06:13.713Z,18.1
2018-04-08T18:07:36.110Z,18.1
2018-04-08T18:08:55.931Z,18.1
2018-04-08T18:10:15.799Z,18.1
2018-04-08T18:11:40.712Z,18.1
2018-04-08T18:13:00.535Z,18
2018-04-08T18:14:25.468Z,18
2018-04-08T18:15:45.342Z,18
2018-04-08T18:17:07.713Z,18
2018-04-08T18:18:27.555Z,18
2018-04-08T18:19:57.560Z,17.9
2018-04-08T18:21:19.988Z,17.9
2018-04-08T18:22:44.893Z,17.9